Time;durP1;ratioP1;P1;durP2;ratioP2;P2;SDS_P1;SDS_P2;PMS_P1;PMS_P2;Temp;Humidity;BMP_temperature;BMP_pressure;BME280_temperature;BME280_humidity;BME280_pressure;Samples;Min_cycle;Max_cycle;Signal;HPM_P1;HPM_P2
2022/11/25 00:01:33;;;;;;;52.90;24.90;;;;;;;-0.58;76.47;98879.05;103454;1300;99211;-69
2022/11/25 00:04:03;;;;;;;50.80;23.70;;;;;;;-0.62;76.51;98879.35;103275;1298;107687;-73
2022/11/25 00:06:33;;;;;;;51.50;24.30;;;;;;;-0.66;76.42;98879.63;103328;1298;99705;-69
2022/11/25 00:09:09;;;;;;;50.80;24.40;;;;;;;-0.66;76.51;98881.36;103483;1297;100002;-70
2022/11/25 00:11:40;;;;;;;52.50;24.70;;;;;;;-0.66;76.42;98880.67;103297;1295;113095;-69
2022/11/25 00:14:13;;;;;;;50.10;26.00;;;;;;;-0.69;76.42;98876.59;103457;1297;99226;-69
2022/11/25 00:16:42;;;;;;;46.60;22.90;;;;;;;-0.70;76.46;98876.78;103336;1301;107567;-69
2022/11/25 00:19:17;;;;;;;52.90;25.10;;;;;;;-0.69;76.49;98881.30;103425;1305;99327;-70
2022/11/25 00:21:45;;;;;;;56.00;27.80;;;;;;;-0.67;76.62;98882.62;103316;1302;99262;-69
2022/11/25 00:24:15;;;;;;;57.40;28.60;;;;;;;-0.64;76.76;98885.84;103490;1305;112982;-70
2022/11/25 00:26:44;;;;;;;52.50;28.60;;;;;;;-0.61;76.78;98886.45;103400;1298;99238;-70
2022/11/25 00:29:15;;;;;;;57.90;29.60;;;;;;;-0.58;76.70;98890.89;103391;1298;108811;-70
2022/11/25 00:31:43;;;;;;;54.60;28.30;;;;;;;-0.55;76.79;98897.26;103394;1302;99291;-69
2022/11/25 00:34:14;;;;;;;51.60;27.00;;;;;;;-0.57;76.63;98895.38;103391;1297;99227;-69
2022/11/25 00:36:43;;;;;;;56.50;27.40;;;;;;;-0.59;76.68;98895.09;103322;1297;112241;-69
2022/11/25 00:39:15;;;;;;;55.10;27.80;;;;;;;-0.57;76.67;98896.25;103380;1291;99232;-70
2022/11/25 00:44:34;;;;;;;54.80;27.90;;;;;;;-0.55;76.71;98896.73;103331;1295;99275;-69
2022/11/25 00:47:17;;;;;;;48.10;24.20;;;;;;;-0.53;76.71;98899.63;103502;1305;98364;-69
2022/11/25 00:49:51;;;;;;;49.80;26.60;;;;;;;-0.52;76.78;98902.90;103373;1297;112077;-69
2022/11/25 00:52:23;;;;;;;45.40;24.60;;;;;;;-0.50;76.81;98903.20;103504;1291;99229;-69
2022/11/25 00:54:52;;;;;;;49.70;26.20;;;;;;;-0.49;76.74;98904.73;103324;1300;107350;-69
2022/11/25 00:57:22;;;;;;;49.70;24.80;;;;;;;-0.47;76.72;98903.29;103517;1297;99249;-69
2022/11/25 00:59:50;;;;;;;48.10;25.30;;;;;;;-0.46;76.69;98906.21;103362;1300;99244;-69
2022/11/25 01:02:18;;;;;;;48.00;23.00;;;;;;;-0.47;76.72;98906.23;103368;1298;112475;-70
2022/11/25 01:04:48;;;;;;;47.00;24.00;;;;;;;-0.45;76.73;98906.02;103156;1300;96479;-69
2022/11/25 01:07:18;;;;;;;45.20;24.40;;;;;;;-0.49;76.64;98904.38;103411;1295;108214;-69
2022/11/25 01:09:47;;;;;;;47.90;25.20;;;;;;;-0.49;76.60;98906.66;103278;1294;99298;-69
2022/11/25 01:12:16;;;;;;;45.30;23.80;;;;;;;-0.49;76.64;98905.42;103295;1293;96519;-68
2022/11/25 01:14:45;;;;;;;50.30;24.70;;;;;;;-0.50;76.70;98903.88;103271;1298;111568;-70
2022/11/25 01:17:13;;;;;;;51.90;24.70;;;;;;;-0.48;76.67;98905.41;103442;1302;99184;-69
2022/11/25 01:19:41;;;;;;;45.20;22.60;;;;;;;-0.49;76.75;98905.08;103445;1297;107586;-69
2022/11/25 01:22:09;;;;;;;45.90;23.40;;;;;;;-0.50;76.68;98907.02;103359;1306;99734;-69
2022/11/25 01:24:37;;;;;;;44.00;21.70;;;;;;;-0.51;76.60;98908.95;103422;1290;99230;-70
2022/11/25 01:27:06;;;;;;;41.10;21.20;;;;;;;-0.51;76.74;98911.40;103347;1286;112578;-70
2022/11/25 01:29:33;;;;;;;43.10;21.00;;;;;;;-0.49;76.71;98912.92;103529;1289;99196;-69
2022/11/25 01:32:01;;;;;;;40.50;21.80;;;;;;;-0.48;76.82;98913.92;103348;1299;107063;-69
2022/11/25 01:34:31;;;;;;;42.60;21.70;;;;;;;-0.46;76.73;98916.48;103263;1298;99352;-69
2022/11/25 01:36:59;;;;;;;40.10;20.40;;;;;;;-0.47;76.74;98917.39;103353;1298;99211;-71
2022/11/25 01:39:27;;;;;;;42.40;21.70;;;;;;;-0.46;76.76;98918.23;103494;1298;112579;-69
2022/11/25 01:42:01;;;;;;;42.70;21.50;;;;;;;-0.44;76.76;98920.11;103474;1291;99322;-69
2022/11/25 01:44:31;;;;;;;39.50;19.70;;;;;;;-0.43;76.82;98923.73;103305;1298;107332;-72
2022/11/25 01:47:22;;;;;;;38.50;20.60;;;;;;;-0.42;76.85;98925.09;103411;1297;99276;-70
2022/11/25 01:50:02;;;;;;;38.50;20.00;;;;;;;-0.44;76.78;98923.23;103421;1300;99255;-69
2022/11/25 01:52:43;;;;;;;42.80;21.90;;;;;;;-0.44;76.74;98921.32;103384;1302;112488;-70
2022/11/25 01:55:17;;;;;;;41.30;20.90;;;;;;;-0.48;76.78;98921.77;103452;1297;99252;-72
2022/11/25 01:58:00;;;;;;;38.70;19.60;;;;;;;-0.45;76.91;98925.01;103418;1297;107564;-72
2022/11/25 02:00:28;;;;;;;40.60;21.90;;;;;;;-0.46;76.70;98926.42;103469;1292;99323;-69
2022/11/25 02:02:57;;;;;;;39.40;20.70;;;;;;;-0.46;76.77;98924.14;103350;1304;99223;-69
2022/11/25 02:05:48;;;;;;;36.90;19.60;;;;;;;-0.45;76.94;98925.34;103363;1291;112488;-69
2022/11/25 02:08:19;;;;;;;42.90;20.80;;;;;;;-0.43;76.78;98924.27;103330;1298;99248;-69
2022/11/25 02:10:47;;;;;;;41.20;22.60;;;;;;;-0.41;76.88;98924.70;103290;1298;107543;-70
2022/11/25 02:13:15;;;;;;;41.50;21.80;;;;;;;-0.40;76.91;98927.27;103438;1297;99303;-70
2022/11/25 02:15:43;;;;;;;44.10;24.20;;;;;;;-0.39;76.98;98928.46;103316;1293;99275;-71
2022/11/25 02:18:11;;;;;;;43.20;20.90;;;;;;;-0.36;76.91;98931.00;103409;1301;112590;-69
2022/11/25 02:20:41;;;;;;;43.40;22.70;;;;;;;-0.33;76.88;98937.02;103343;1301;99312;-70
2022/11/25 02:23:26;;;;;;;44.50;23.50;;;;;;;-0.31;77.01;98934.34;103522;1293;107279;-69
2022/11/25 02:25:54;;;;;;;37.70;19.90;;;;;;;-0.30;77.03;98937.60;103276;1295;97748;-70
2022/11/25 02:28:26;;;;;;;44.20;23.60;;;;;;;-0.29;76.87;98933.77;103433;1291;96462;-71
2022/11/25 02:30:55;;;;;;;45.20;24.10;;;;;;;-0.28;76.95;98937.58;103232;1301;113327;-72
2022/11/25 02:33:26;;;;;;;43.40;23.20;;;;;;;-0.28;76.99;98935.15;103457;1294;99248;-71
2022/11/25 02:36:02;;;;;;;43.10;23.70;;;;;;;-0.28;76.96;98936.67;103487;1297;107609;-71
2022/11/25 02:38:41;;;;;;;44.80;22.70;;;;;;;-0.26;77.03;98934.90;103335;1300;99919;-71
2022/11/25 02:41:12;;;;;;;45.70;23.90;;;;;;;-0.25;76.91;98939.58;103375;1301;97952;-72
2022/11/25 02:43:43;;;;;;;45.70;24.20;;;;;;;-0.24;76.98;98941.26;103389;1295;112496;-70
2022/11/25 02:46:18;;;;;;;42.00;22.70;;;;;;;-0.23;76.90;98942.96;103322;1302;99043;-73
2022/11/25 02:48:56;;;;;;;43.90;21.90;;;;;;;-0.23;77.01;98945.41;103369;1295;108111;-73
2022/11/25 02:51:44;;;;;;;43.30;23.80;;;;;;;-0.22;76.99;98943.82;103299;1302;99299;-70
2022/11/25 02:54:14;;;;;;;46.40;24.40;;;;;;;-0.20;77.07;98949.00;103362;1297;99334;-70
2022/11/25 02:56:43;;;;;;;44.50;24.20;;;;;;;-0.20;77.05;98948.11;103479;1298;112231;-71
2022/11/25 02:59:11;;;;;;;46.50;23.10;;;;;;;-0.19;77.04;98953.84;103331;1301;99392;-69
2022/11/25 03:01:41;;;;;;;44.50;22.90;;;;;;;-0.20;76.94;98956.30;103385;1301;108971;-72
2022/11/25 03:04:10;;;;;;;43.80;23.50;;;;;;;-0.21;76.99;98956.50;103316;1292;99227;-73
2022/11/25 03:06:38;;;;;;;44.30;23.10;;;;;;;-0.22;76.98;98954.98;103338;1300;99326;-70
2022/11/25 03:09:07;;;;;;;47.70;25.10;;;;;;;-0.22;76.95;98954.48;103501;1302;112722;-72
2022/11/25 03:14:22;;;;;;;45.10;23.60;;;;;;;-0.23;77.03;98954.69;103388;1293;106246;-71
2022/11/25 03:16:49;;;;;;;43.50;21.70;;;;;;;-0.23;77.08;98959.39;103368;1293;99877;-72
2022/11/25 03:19:17;;;;;;;42.10;23.20;;;;;;;-0.27;76.92;98958.77;103455;1292;99242;-72
2022/11/25 03:21:45;;;;;;;46.80;25.30;;;;;;;-0.30;76.89;98964.62;103273;1300;111067;-71
2022/11/25 03:24:13;;;;;;;44.10;24.20;;;;;;;-0.33;76.93;98962.27;103309;1294;99133;-71
2022/11/25 03:26:40;;;;;;;46.90;25.10;;;;;;;-0.34;77.04;98964.39;103416;1301;107497;-71
2022/11/25 03:29:08;;;;;;;47.20;24.90;;;;;;;-0.33;76.96;98966.27;103306;1300;99245;-70
2022/11/25 03:31:36;;;;;;;47.00;24.40;;;;;;;-0.34;76.97;98969.10;103412;1302;97658;-70
2022/11/25 03:34:05;;;;;;;47.00;23.60;;;;;;;-0.37;76.76;98969.34;103400;1302;112870;-71
2022/11/25 03:36:33;;;;;;;45.00;22.20;;;;;;;-0.37;76.97;98971.09;103381;1300;99230;-71
2022/11/25 03:39:03;;;;;;;45.80;24.40;;;;;;;-0.35;76.98;98974.17;103286;1302;107542;-71
2022/11/25 03:41:31;;;;;;;47.50;23.10;;;;;;;-0.36;77.04;98974.56;103319;1286;99250;-72
2022/11/25 03:43:58;;;;;;;47.90;25.60;;;;;;;-0.38;76.91;98978.64;103428;1301;97238;-71
2022/11/25 03:46:26;;;;;;;48.10;26.90;;;;;;;-0.40;76.96;98979.73;103365;1297;112110;-70
2022/11/25 03:48:54;;;;;;;47.70;24.50;;;;;;;-0.39;76.95;98976.92;103380;1298;99223;-72
2022/11/25 03:51:22;;;;;;;48.70;24.80;;;;;;;-0.38;77.06;98978.11;103445;1297;107244;-70
2022/11/25 03:53:50;;;;;;;49.90;25.70;;;;;;;-0.37;77.07;98981.73;103448;1298;99226;-70
2022/11/25 03:56:18;;;;;;;46.10;23.80;;;;;;;-0.36;77.05;98981.89;103379;1302;96672;-70
2022/11/25 03:58:45;;;;;;;51.10;26.00;;;;;;;-0.35;77.05;98984.45;103348;1286;111238;-70
2022/11/25 04:01:13;;;;;;;52.40;26.40;;;;;;;-0.33;77.08;98986.67;103425;1297;99233;-69
2022/11/25 04:03:41;;;;;;;50.10;26.40;;;;;;;-0.33;77.02;98981.80;103336;1302;106666;-71
2022/11/25 04:06:09;;;;;;;51.80;26.40;;;;;;;-0.33;77.03;98982.67;103316;1302;99276;-72
2022/11/25 04:08:37;;;;;;;50.30;26.00;;;;;;;-0.35;77.09;98978.00;103413;1297;99741;-70
2022/11/25 04:11:05;;;;;;;52.50;27.50;;;;;;;-0.35;77.03;98979.05;103236;1301;112533;-70
2022/11/25 04:13:34;;;;;;;50.50;27.60;;;;;;;-0.35;77.05;98979.58;103407;1290;99322;-71
2022/11/25 04:16:02;;;;;;;49.10;27.10;;;;;;;-0.35;77.09;98978.70;103321;1300;107671;-71
2022/11/25 04:18:30;;;;;;;53.10;28.60;;;;;;;-0.35;77.04;98983.60;103371;1294;99316;-71
2022/11/25 04:20:58;;;;;;;52.30;26.70;;;;;;;-0.35;77.09;98985.34;103456;1295;99306;-71
2022/11/25 04:23:25;;;;;;;52.30;27.10;;;;;;;-0.35;76.97;98989.86;103335;1291;112527;-72
2022/11/25 04:25:53;;;;;;;51.00;26.70;;;;;;;-0.33;77.07;98985.45;103454;1293;99206;-71
2022/11/25 04:28:21;;;;;;;54.60;28.60;;;;;;;-0.32;76.98;98991.70;103286;1301;107526;-70
2022/11/25 04:30:49;;;;;;;52.50;27.10;;;;;;;-0.33;77.01;98998.52;103346;1302;99366;-70
2022/11/25 04:33:17;;;;;;;52.90;27.50;;;;;;;-0.32;77.04;98999.89;103257;1294;99235;-69
2022/11/25 04:35:46;;;;;;;59.60;28.10;;;;;;;-0.33;77.07;99002.36;103280;1301;112753;-69
2022/11/25 04:38:15;;;;;;;51.90;26.50;;;;;;;-0.31;77.11;99003.35;103299;1291;99227;-71
2022/11/25 04:40:43;;;;;;;58.60;30.70;;;;;;;-0.32;77.08;99004.06;103214;1294;108023;-71
2022/11/25 04:43:12;;;;;;;51.00;26.60;;;;;;;-0.29;77.19;99004.00;103388;1298;99203;-73
2022/11/25 04:45:40;;;;;;;55.70;27.40;;;;;;;-0.30;77.17;99006.11;103443;1297;139680;-70
2022/11/25 04:48:28;;;;;;;55.60;25.90;;;;;;;-0.29;77.07;99010.09;103310;1292;112141;-70
2022/11/25 04:50:56;;;;;;;52.60;26.80;;;;;;;-0.29;77.08;99012.01;103465;1301;99076;-70
2022/11/25 04:53:23;;;;;;;52.00;27.40;;;;;;;-0.28;77.14;99010.06;103532;1292;107529;-71
2022/11/25 04:55:51;;;;;;;55.70;28.10;;;;;;;-0.26;77.22;99011.90;103414;1297;99340;-71
2022/11/25 04:59:38;;;;;;;53.60;28.50;;;;;;;-0.23;77.16;99012.88;103402;1302;99237;-72
2022/11/25 05:01:07;;;;;;;58.00;28.10;;;;;;;-0.22;77.14;99017.56;103410;1294;112402;-72
2022/11/25 05:03:35;;;;;;;55.10;27.00;;;;;;;-0.22;77.20;99013.17;103360;1300;99319;-70
2022/11/25 05:06:09;;;;;;;51.90;26.30;;;;;;;-0.19;77.16;99018.14;103324;1294;106502;-69
2022/11/25 05:08:37;;;;;;;52.30;27.10;;;;;;;-0.18;77.25;99016.20;103323;1301;99371;-71
2022/11/25 05:11:06;;;;;;;52.50;27.00;;;;;;;-0.16;77.15;99018.59;103367;1302;99237;-70
2022/11/25 05:13:34;;;;;;;52.00;27.70;;;;;;;-0.14;77.24;99020.10;103496;1300;113005;-72
2022/11/25 05:16:02;;;;;;;52.60;27.10;;;;;;;-0.11;77.24;99027.88;103468;1299;99341;-71
2022/11/25 05:18:30;;;;;;;54.00;27.10;;;;;;;-0.08;77.26;99033.53;103349;1294;108115;-70
2022/11/25 05:21:04;;;;;;;52.00;27.60;;;;;;;-0.07;77.18;99036.80;103499;1297;99237;-70
2022/11/25 05:23:32;;;;;;;55.50;27.60;;;;;;;-0.04;77.28;99035.15;103405;1299;99337;-68
2022/11/25 05:26:02;;;;;;;53.10;28.50;;;;;;;-0.03;77.16;99037.22;103350;1302;113041;-73
2022/11/25 05:28:30;;;;;;;56.90;29.10;;;;;;;-0.01;77.24;99042.04;103527;1295;99208;-71
2022/11/25 05:30:59;;;;;;;50.90;27.40;;;;;;;-0.01;77.14;99039.95;103411;1298;108047;-72
2022/11/25 05:33:27;;;;;;;54.50;27.70;;;;;;;0.00;77.15;99039.05;103372;1293;100214;-72
2022/11/25 05:36:02;;;;;;;49.60;26.60;;;;;;;0.00;77.13;99039.56;103470;1292;99940;-71
2022/11/25 05:38:31;;;;;;;56.00;28.80;;;;;;;0.02;77.29;99042.30;103341;1292;111961;-71
2022/11/25 05:41:06;;;;;;;60.80;30.00;;;;;;;0.03;77.16;99040.19;103470;1292;99242;-71
2022/11/25 05:43:33;;;;;;;55.10;30.40;;;;;;;0.02;77.09;99042.46;103305;1301;106534;-69
2022/11/25 05:46:06;;;;;;;54.20;28.40;;;;;;;0.03;77.42;99043.48;103420;1296;99542;-70
2022/11/25 05:48:34;;;;;;;54.50;28.20;;;;;;;0.04;77.31;99045.19;103454;1297;99297;-70
2022/11/25 05:51:05;;;;;;;60.80;28.80;;;;;;;0.06;77.30;99048.45;103393;1294;113392;-71
2022/11/25 05:53:32;;;;;;;56.80;28.30;;;;;;;0.07;77.26;99045.63;103381;1301;99213;-71
2022/11/25 05:56:05;;;;;;;54.90;29.30;;;;;;;0.08;77.15;99050.14;103468;1294;107390;-71
2022/11/25 05:58:33;;;;;;;57.20;30.10;;;;;;;0.10;77.14;99049.55;103426;1292;99215;-68
2022/11/25 06:01:10;;;;;;;54.40;29.50;;;;;;;0.12;77.24;99051.59;103344;1301;99236;-70
2022/11/25 06:03:39;;;;;;;54.70;28.00;;;;;;;0.12;77.31;99052.81;103373;1295;111377;-69
2022/11/25 06:06:09;;;;;;;53.10;28.00;;;;;;;0.12;77.20;99055.76;103414;1294;99250;-69
2022/11/25 06:08:39;;;;;;;54.50;28.60;;;;;;;0.12;77.35;99058.54;103307;1300;107520;-71
2022/11/25 06:11:14;;;;;;;53.70;27.10;;;;;;;0.13;77.11;99057.12;103371;1307;99165;-68
2022/11/25 06:13:44;;;;;;;52.40;27.30;;;;;;;0.13;77.17;99059.91;103418;1294;99286;-70
2022/11/25 06:16:16;;;;;;;48.70;25.30;;;;;;;0.15;77.25;99066.33;103354;1295;112261;-72
2022/11/25 06:18:44;;;;;;;52.00;26.20;;;;;;;0.17;77.40;99065.75;103345;1292;98041;-73
2022/11/25 06:21:14;;;;;;;53.90;28.00;;;;;;;0.18;77.21;99065.73;103320;1298;107359;-71
2022/11/25 06:23:44;;;;;;;53.90;26.40;;;;;;;0.18;77.22;99066.05;103289;1295;99977;-71
2022/11/25 06:26:20;;;;;;;50.90;28.50;;;;;;;0.19;77.39;99064.81;103321;1294;99344;-71
2022/11/25 06:28:52;;;;;;;49.90;26.10;;;;;;;0.21;77.38;99068.75;103365;1294;111299;-71
2022/11/25 06:31:25;;;;;;;52.00;26.30;;;;;;;0.23;77.16;99071.30;103345;1293;99317;-74
2022/11/25 06:33:54;;;;;;;54.10;26.70;;;;;;;0.24;77.20;99073.88;103431;1294;107273;-73
2022/11/25 06:36:22;;;;;;;51.80;25.10;;;;;;;0.25;77.13;99072.11;103309;1288;99289;-72
2022/11/25 06:38:53;;;;;;;53.30;27.20;;;;;;;0.26;77.24;99072.26;103346;1299;99209;-73
2022/11/25 06:41:22;;;;;;;51.70;26.60;;;;;;;0.27;77.29;99075.34;103396;1292;114393;-73
2022/11/25 06:43:50;;;;;;;52.50;25.80;;;;;;;0.29;77.43;99078.62;103336;1301;97683;-72
2022/11/25 06:46:19;;;;;;;56.10;27.80;;;;;;;0.30;77.18;99077.20;103320;1294;107227;-71
2022/11/25 06:48:52;;;;;;;55.30;28.50;;;;;;;0.32;77.28;99080.98;103389;1297;99249;-71
2022/11/25 06:51:23;;;;;;;55.60;25.80;;;;;;;0.35;77.19;99082.46;103237;1298;98296;-71
2022/11/25 06:53:52;;;;;;;59.50;28.70;;;;;;;0.38;77.20;99088.98;103395;1301;112278;-71
2022/11/25 06:56:24;;;;;;;53.10;26.10;;;;;;;0.40;77.20;99091.39;103443;1300;98936;-72
2022/11/25 06:58:54;;;;;;;53.80;27.30;;;;;;;0.42;77.31;99093.23;103354;1294;107470;-71
2022/11/25 07:01:25;;;;;;;52.70;25.70;;;;;;;0.42;77.14;99093.42;103371;1302;99237;-73
2022/11/25 07:03:59;;;;;;;50.40;26.20;;;;;;;0.42;77.47;99093.55;103407;1297;97856;-73
2022/11/25 07:06:29;;;;;;;48.90;25.00;;;;;;;0.45;77.23;99093.66;103359;1294;112239;-71
2022/11/25 07:08:59;;;;;;;48.00;25.30;;;;;;;0.46;77.17;99094.16;103387;1301;99329;-72
2022/11/25 07:11:29;;;;;;;51.80;24.60;;;;;;;0.47;77.38;99095.70;103365;1294;107371;-70
2022/11/25 07:14:09;;;;;;;49.80;25.50;;;;;;;0.49;77.34;99095.65;103377;1297;99327;-71
2022/11/25 07:16:40;;;;;;;45.80;23.20;;;;;;;0.51;77.37;99095.92;103493;1294;96447;-70
2022/11/25 07:19:14;;;;;;;45.10;22.40;;;;;;;0.53;77.30;99097.27;103409;1292;111462;-71
2022/11/25 07:21:44;;;;;;;51.50;25.70;;;;;;;0.53;77.38;99094.30;103251;1297;99382;-73
2022/11/25 07:24:15;;;;;;;47.50;24.30;;;;;;;0.55;77.28;99093.54;103341;1298;108226;-73
2022/11/25 07:26:45;;;;;;;49.00;24.10;;;;;;;0.58;77.42;99094.30;103311;1303;99235;-72
2022/11/25 07:29:14;;;;;;;45.40;23.30;;;;;;;0.62;77.28;99092.98;103372;1294;97394;-71
2022/11/25 07:32:02;;;;;;;49.10;23.60;;;;;;;0.62;77.26;99094.38;103363;1300;112834;-74
2022/11/25 07:34:37;;;;;;;49.00;24.90;;;;;;;0.61;77.35;99091.44;103382;1294;99752;-71
2022/11/25 07:37:06;;;;;;;48.90;24.40;;;;;;;0.59;77.16;99090.79;103322;1297;107559;-74
2022/11/25 07:39:35;;;;;;;55.00;26.30;;;;;;;0.56;77.22;99089.50;103322;1294;99264;-71
2022/11/25 07:42:04;;;;;;;56.10;26.60;;;;;;;0.52;77.34;99091.02;103291;1294;99228;-72
2022/11/25 07:44:32;;;;;;;52.50;27.20;;;;;;;0.46;77.15;99097.14;103412;1300;112223;-74
2022/11/25 07:47:00;;;;;;;55.50;26.50;;;;;;;0.43;77.36;99104.70;103465;1300;99030;-73
2022/11/25 07:49:28;;;;;;;50.70;25.20;;;;;;;0.44;77.44;99103.80;104357;1292;105501;-71
2022/11/25 07:51:59;;;;;;;56.30;26.10;;;;;;;0.46;77.47;99106.56;103403;1293;99221;-71
2022/11/25 07:54:28;;;;;;;52.80;27.20;;;;;;;0.48;77.51;99107.20;103379;1294;99307;-71
2022/11/25 07:56:56;;;;;;;53.50;27.10;;;;;;;0.50;77.53;99110.10;103243;1300;113299;-70
2022/11/25 07:59:24;;;;;;;56.30;27.30;;;;;;;0.53;77.49;99112.98;103256;1302;99327;-72
2022/11/25 08:01:54;;;;;;;55.40;27.30;;;;;;;0.58;77.63;99115.61;103363;1297;107463;-73
2022/11/25 08:04:22;;;;;;;53.20;25.50;;;;;;;0.61;77.53;99121.09;104215;1300;96808;-73
2022/11/25 08:06:52;;;;;;;55.00;28.30;;;;;;;0.63;77.43;99126.98;103409;1294;99276;-73
2022/11/25 08:09:22;;;;;;;55.60;27.10;;;;;;;0.64;77.55;99130.42;103424;1292;112172;-71
2022/11/25 08:11:52;;;;;;;50.60;26.50;;;;;;;0.67;77.53;99131.39;103344;1295;96909;-72
2022/11/25 08:14:20;;;;;;;54.40;28.90;;;;;;;0.68;77.59;99136.94;103269;1292;108041;-73
2022/11/25 08:16:48;;;;;;;51.60;25.90;;;;;;;0.72;77.72;99143.45;103288;1302;96981;-72
2022/11/25 08:19:17;;;;;;;54.90;27.90;;;;;;;0.77;77.74;99147.83;103433;1294;99339;-72
2022/11/25 08:21:46;;;;;;;55.60;27.90;;;;;;;0.84;77.61;99142.91;103226;1297;113159;-70
2022/11/25 08:24:20;;;;;;;57.00;29.00;;;;;;;0.91;77.94;99144.44;103270;1301;99341;-75
2022/11/25 08:26:48;;;;;;;54.30;29.50;;;;;;;0.96;77.88;99145.66;103211;1301;109691;-72
2022/11/25 08:29:18;;;;;;;57.10;29.20;;;;;;;1.01;77.75;99148.48;103229;1304;99290;-72
2022/11/25 08:31:46;;;;;;;56.60;29.70;;;;;;;1.05;77.85;99149.03;103317;1298;99782;-72
2022/11/25 08:34:21;;;;;;;58.50;31.60;;;;;;;1.08;77.59;99152.27;103192;1297;111544;-72
2022/11/25 08:36:51;;;;;;;56.30;30.30;;;;;;;1.08;77.47;99151.75;103443;1291;99233;-71
2022/11/25 08:39:21;;;;;;;56.10;30.50;;;;;;;1.09;77.74;99154.54;103338;1294;107311;-71
2022/11/25 08:42:08;;;;;;;55.20;30.10;;;;;;;1.13;77.48;99157.88;103421;1298;96543;-72
2022/11/25 08:44:37;;;;;;;51.70;28.70;;;;;;;1.17;78.08;99160.89;103415;1298;99326;-73
2022/11/25 08:47:05;;;;;;;52.70;30.00;;;;;;;1.23;77.63;99167.02;103403;1292;112172;-73
2022/11/25 08:49:33;;;;;;;55.30;28.40;;;;;;;1.26;77.70;99163.38;103515;1285;99340;-73
2022/11/25 08:52:10;;;;;;;53.60;27.10;;;;;;;1.30;77.54;99166.91;103416;1302;108146;-74
2022/11/25 08:54:38;;;;;;;54.30;28.20;;;;;;;1.34;77.59;99167.52;103408;1298;96510;-73
2022/11/25 08:57:06;;;;;;;53.70;27.30;;;;;;;1.38;77.60;99169.46;103449;1302;99327;-73
2022/11/25 08:59:36;;;;;;;53.10;27.70;;;;;;;1.43;77.60;99167.74;103492;1295;111393;-73
2022/11/25 09:02:12;;;;;;;51.00;27.00;;;;;;;1.46;77.88;99163.59;103331;1292;99181;-72
2022/11/25 09:04:40;;;;;;;50.80;26.30;;;;;;;1.50;77.60;99169.41;103307;1295;107597;-72
2022/11/25 09:07:08;;;;;;;51.30;26.70;;;;;;;1.54;77.50;99168.75;103372;1295;99282;-71
2022/11/25 09:09:36;;;;;;;50.70;27.00;;;;;;;1.57;77.93;99172.66;103366;1292;97518;-72
2022/11/25 09:12:05;;;;;;;51.10;25.80;;;;;;;1.60;77.66;99170.65;103304;1294;112633;-73
2022/11/25 09:14:33;;;;;;;49.50;27.10;;;;;;;1.63;77.59;99168.27;103396;1288;97779;-75
2022/11/25 09:17:00;;;;;;;50.80;28.40;;;;;;;1.64;77.60;99168.39;103442;1292;107519;-72
2022/11/25 09:19:28;;;;;;;51.80;27.80;;;;;;;1.64;77.79;99167.00;103389;1294;97233;-73
2022/11/25 09:21:56;;;;;;;49.80;25.80;;;;;;;1.66;77.34;99167.31;103420;1291;99227;-73
2022/11/25 09:24:24;;;;;;;48.50;26.70;;;;;;;1.68;77.47;99168.99;103411;1292;112498;-73
2022/11/25 09:26:52;;;;;;;51.50;26.40;;;;;;;1.70;77.67;99170.66;103394;1300;97563;-72
2022/11/25 09:29:20;;;;;;;53.00;26.50;;;;;;;1.73;77.61;99172.84;103440;1292;107173;-73
2022/11/25 09:31:49;;;;;;;47.80;25.40;;;;;;;1.74;77.74;99176.45;103409;1300;99320;-74
2022/11/25 09:34:23;;;;;;;50.50;26.80;;;;;;;1.76;77.67;99179.17;103485;1288;96551;-70
2022/11/25 09:36:52;;;;;;;56.20;30.10;;;;;;;1.77;77.67;99182.48;103408;1291;112563;-74
2022/11/25 09:39:21;;;;;;;52.80;29.20;;;;;;;1.79;77.81;99181.90;103547;1294;99211;-72
2022/11/25 09:48:43;;;;;;;53.60;28.40;;;;;;;1.79;77.78;99184.00;103439;1301;99340;-72
2022/11/25 09:51:25;;;;;;;59.10;29.50;;;;;;;1.80;77.72;99178.89;103389;1294;112486;-72
2022/11/25 09:54:07;;;;;;;54.40;28.80;;;;;;;1.82;77.50;99177.62;103374;1300;99238;-70
2022/11/25 09:56:44;;;;;;;57.60;27.60;;;;;;;1.83;77.87;99176.36;103399;1292;107495;-72
2022/11/25 09:59:34;;;;;;;63.00;29.20;;;;;;;1.83;77.89;99174.92;103321;1297;99215;-73
2022/11/25 10:02:16;;;;;;;58.60;28.70;;;;;;;1.83;77.89;99179.48;103437;1292;97690;-73
2022/11/25 10:05:19;;;;;;;64.10;30.00;;;;;;;1.84;77.53;99180.49;103360;1298;112442;-70
2022/11/25 10:08:12;;;;;;;56.20;26.80;;;;;;;1.84;78.01;99177.70;103438;1294;99337;-71
2022/11/25 10:10:48;;;;;;;72.20;31.40;;;;;;;1.85;77.65;99175.38;103441;1297;107362;-71
2022/11/25 10:13:24;;;;;;;76.40;33.60;;;;;;;1.86;78.28;99176.40;103427;1294;99265;-70
2022/11/25 10:15:57;;;;;;;81.00;36.10;;;;;;;1.85;77.72;99180.61;103398;1295;99235;-70
2022/11/25 10:18:45;;;;;;;73.40;34.20;;;;;;;1.86;77.90;99182.17;103375;1294;112993;-69
2022/11/25 10:21:12;;;;;;;85.40;32.50;;;;;;;1.85;77.97;99185.16;103413;1302;99964;-70
2022/11/25 10:23:40;;;;;;;84.50;33.10;;;;;;;1.86;78.01;99187.60;103379;1297;107801;-72
2022/11/25 10:26:17;;;;;;;72.60;30.50;;;;;;;1.85;77.88;99191.82;103346;1301;100817;-71
2022/11/25 10:29:12;;;;;;;85.80;34.40;;;;;;;1.84;77.85;99195.00;103434;1294;99362;-71
2022/11/25 10:31:42;;;;;;;84.40;34.20;;;;;;;1.85;77.83;99198.11;103384;1301;112605;-71
2022/11/25 10:34:21;;;;;;;85.40;34.00;;;;;;;1.83;78.00;99194.86;103347;1300;99358;-70
2022/11/25 10:36:54;;;;;;;86.00;36.50;;;;;;;1.82;77.93;99196.31;103314;1298;107512;-70
2022/11/25 10:39:26;;;;;;;82.20;33.70;;;;;;;1.82;77.77;99195.27;103331;1294;99217;-72
2022/11/25 10:42:07;;;;;;;90.30;37.90;;;;;;;1.83;77.75;99194.90;103341;1301;99211;-72
2022/11/25 10:44:39;;;;;;;88.80;35.80;;;;;;;1.84;78.02;99197.31;103364;1294;112285;-71
2022/11/25 10:47:13;;;;;;;92.80;37.50;;;;;;;1.84;77.77;99199.01;103358;1300;99230;-70
2022/11/25 10:50:14;;;;;;;90.60;35.00;;;;;;;1.86;78.01;99197.22;103290;1294;107063;-71
2022/11/25 10:53:12;;;;;;;94.20;37.80;;;;;;;1.87;77.78;99199.97;103285;1301;99321;-72
2022/11/25 10:56:02;;;;;;;90.00;35.30;;;;;;;1.88;78.12;99198.54;103291;1294;99250;-72
2022/11/25 10:58:41;;;;;;;88.60;37.80;;;;;;;1.90;78.09;99197.77;103306;1294;111531;-71
2022/11/25 11:01:24;;;;;;;89.30;36.90;;;;;;;1.92;78.22;99198.92;103276;1295;99742;-70
2022/11/25 11:04:06;;;;;;;95.80;36.50;;;;;;;1.93;77.97;99203.08;103394;1285;107270;-70
2022/11/25 11:06:38;;;;;;;95.50;38.70;;;;;;;1.95;78.00;99203.55;103362;1294;99208;-70
2022/11/25 11:09:37;;;;;;;88.30;36.90;;;;;;;1.95;77.91;99206.53;103289;1300;99305;-72
2022/11/25 11:12:26;;;;;;;98.50;38.70;;;;;;;1.97;77.80;99204.73;103361;1294;112411;-70
2022/11/25 11:15:40;;;;;;;92.90;40.10;;;;;;;2.00;78.10;99203.55;103267;1295;98611;-71
2022/11/25 11:18:18;;;;;;;90.90;37.40;;;;;;;2.02;78.11;99202.07;102933;1298;107313;-70
2022/11/25 11:20:51;;;;;;;88.80;38.50;;;;;;;2.05;78.14;99203.89;102999;1307;99212;-72
2022/11/25 11:23:21;;;;;;;90.70;38.90;;;;;;;2.06;77.99;99204.55;103233;1297;99270;-72
2022/11/25 11:25:55;;;;;;;96.30;41.70;;;;;;;2.08;77.93;99206.58;103284;1295;112639;-73
2022/11/25 11:28:37;;;;;;;98.70;43.50;;;;;;;2.11;77.97;99209.29;103418;1298;96796;-72
2022/11/25 11:31:18;;;;;;;103.80;39.00;;;;;;;2.12;78.21;99212.05;103311;1300;107279;-72
2022/11/25 11:34:11;;;;;;;120.30;44.70;;;;;;;2.07;77.92;99209.77;103307;1301;96795;-73
2022/11/25 11:36:39;;;;;;;109.40;42.40;;;;;;;2.05;77.94;99210.16;103336;1294;97153;-76
2022/11/25 11:39:16;;;;;;;122.00;45.60;;;;;;;2.06;77.82;99208.92;103424;1289;112472;-75
2022/11/25 11:41:56;;;;;;;119.00;43.70;;;;;;;2.07;77.93;99212.39;103404;1295;99226;-72
2022/11/25 11:45:01;;;;;;;116.10;44.60;;;;;;;2.07;78.25;99214.99;103291;1295;107182;-75